This is the latest recevied weather packets stored in our database for station/object WMKA. If no packets are shown the sender has not sent any weather packets the latest 10 day(s).
| Time | Temp. | Humidity | Pressure | Rain* | Wind** | Luminosity | Snow |
|---|---|---|---|---|---|---|---|
| 1777777793 | 30.56° C | 74% | 1010 hPa | - | - | - | - |
| 1777774198 | 30° C | 74% | 1010 hPa | - | - | - | - |
| 1777770593 | 26.67° C | 83% | 1010 hPa | - | - | - | - |
| 1777766999 | 25° C | 94% | 1009 hPa | - | - | - | - |
| 1777763393 | 25° C | 94% | 1008 hPa | - | - | - | - |
| 1777759793 | 25° C | 94% | 1008 hPa | - | - | - | - |
| 1777756193 | 25° C | 94% | 1007 hPa | - | - | - | - |
| 1777752593 | 25° C | 94% | 1007 hPa | - | - | - | - |
| 1777749003 | 25° C | 94% | 1008 hPa | - | - | - | - |
| 1777745393 | 25° C | 94% | 1009 hPa | - | - | - | - |
| 1777742383 | 25° C | 94% | 1010 hPa | - | - | - | - |
| 1777740593 | 25° C | 94% | 1010 hPa | - | - | - | - |
| 1777740007 | 23.89° C | 96% | 1011.1 hPa | - | - | - | - |
| 1777738193 | 25° C | 94% | 1010 hPa | - | - | - | - |
| 1777734592 | 25° C | 94% | 1009 hPa | - | - | - | - |
| 1777730999 | 25° C | 94% | 1009 hPa | - | - | - | - |
| 1777727392 | 25° C | 94% | 1008 hPa | - | - | - | - |
| 1777723797 | 25° C | 94% | 1008 hPa | - | - | - | - |
| 1777721981 | 25.56° C | 94% | 1007 hPa | - | - | - | - |
| 1777720194 | 25.56° C | 94% | 1007 hPa | - | - | - | - |
| 1777716598 | 27.78° C | 83% | 1006 hPa | - | - | - | - |
| 1777712992 | 32.78° C | 66% | 1005 hPa | - | - | - | - |
| 1777709392 | 32.78° C | 66% | 1005 hPa | - | - | - | - |
| 1777705793 | 33.89° C | 71% | 1006 hPa | - | - | - | - |
| 1777702198 | 33.89° C | 63% | 1008 hPa | - | - | - | - |
* Rain since midnight (hover to see other rain measurements)
** Current wind speed in m/s (hover to see current wind gust speed)